sensor_id;sensor_type;location;lat;lon;timestamp;P1;durP1;ratioP1;P2;durP2;ratioP2
12591;SDS011;6361;52.120;5.108;2023-06-04T00:01:03;2.00;;;1.70;;
12591;SDS011;6361;52.120;5.108;2023-06-04T00:03:29;3.58;;;1.75;;
12591;SDS011;6361;52.120;5.108;2023-06-04T00:05:55;6.90;;;1.80;;
12591;SDS011;6361;52.120;5.108;2023-06-04T00:08:20;3.97;;;1.70;;
12591;SDS011;6361;52.120;5.108;2023-06-04T00:10:46;3.58;;;1.70;;
12591;SDS011;6361;52.120;5.108;2023-06-04T00:13:11;2.65;;;1.40;;
12591;SDS011;6361;52.120;5.108;2023-06-04T00:15:36;2.10;;;1.60;;
12591;SDS011;6361;52.120;5.108;2023-06-04T00:18:02;3.72;;;1.60;;
12591;SDS011;6361;52.120;5.108;2023-06-04T00:20:27;4.55;;;1.80;;
12591;SDS011;6361;52.120;5.108;2023-06-04T00:22:52;3.22;;;1.60;;
12591;SDS011;6361;52.120;5.108;2023-06-04T00:25:18;6.88;;;2.00;;
12591;SDS011;6361;52.120;5.108;2023-06-04T00:27:43;5.70;;;1.85;;
12591;SDS011;6361;52.120;5.108;2023-06-04T00:30:09;4.30;;;1.70;;
12591;SDS011;6361;52.120;5.108;2023-06-04T00:32:34;2.60;;;1.50;;
12591;SDS011;6361;52.120;5.108;2023-06-04T00:35:00;3.60;;;1.77;;
12591;SDS011;6361;52.120;5.108;2023-06-04T00:37:27;2.60;;;1.67;;
12591;SDS011;6361;52.120;5.108;2023-06-04T00:39:52;2.88;;;1.80;;
12591;SDS011;6361;52.120;5.108;2023-06-04T00:42:18;4.70;;;2.08;;
12591;SDS011;6361;52.120;5.108;2023-06-04T00:44:43;4.45;;;2.00;;
12591;SDS011;6361;52.120;5.108;2023-06-04T00:47:13;2.30;;;1.55;;
12591;SDS011;6361;52.120;5.108;2023-06-04T00:49:39;3.58;;;1.83;;
12591;SDS011;6361;52.120;5.108;2023-06-04T00:52:06;4.05;;;1.80;;
12591;SDS011;6361;52.120;5.108;2023-06-04T00:54:34;3.30;;;1.65;;
12591;SDS011;6361;52.120;5.108;2023-06-04T00:57:01;3.28;;;1.77;;
12591;SDS011;6361;52.120;5.108;2023-06-04T00:59:27;3.00;;;1.70;;
12591;SDS011;6361;52.120;5.108;2023-06-04T01:01:55;3.13;;;1.60;;
12591;SDS011;6361;52.120;5.108;2023-06-04T01:04:59;3.55;;;1.70;;
12591;SDS011;6361;52.120;5.108;2023-06-04T01:07:24;2.78;;;1.80;;
12591;SDS011;6361;52.120;5.108;2023-06-04T01:09:50;3.47;;;1.70;;
12591;SDS011;6361;52.120;5.108;2023-06-04T01:12:16;3.17;;;1.60;;
12591;SDS011;6361;52.120;5.108;2023-06-04T01:14:41;2.88;;;1.70;;
12591;SDS011;6361;52.120;5.108;2023-06-04T01:17:09;2.45;;;1.60;;
12591;SDS011;6361;52.120;5.108;2023-06-04T01:22:35;3.33;;;1.77;;
12591;SDS011;6361;52.120;5.108;2023-06-04T01:25:04;3.55;;;1.73;;
12591;SDS011;6361;52.120;5.108;2023-06-04T01:27:31;3.35;;;1.52;;
12591;SDS011;6361;52.120;5.108;2023-06-04T01:29:57;2.33;;;1.65;;
12591;SDS011;6361;52.120;5.108;2023-06-04T01:32:23;3.00;;;1.77;;
12591;SDS011;6361;52.120;5.108;2023-06-04T01:34:49;2.05;;;1.65;;
12591;SDS011;6361;52.120;5.108;2023-06-04T01:37:14;4.22;;;1.92;;
12591;SDS011;6361;52.120;5.108;2023-06-04T01:39:41;3.72;;;1.75;;
12591;SDS011;6361;52.120;5.108;2023-06-04T01:42:07;3.50;;;1.92;;
12591;SDS011;6361;52.120;5.108;2023-06-04T01:44:33;4.10;;;1.95;;
12591;SDS011;6361;52.120;5.108;2023-06-04T01:46:58;3.85;;;1.88;;
12591;SDS011;6361;52.120;5.108;2023-06-04T01:49:23;3.88;;;1.70;;
12591;SDS011;6361;52.120;5.108;2023-06-04T01:51:49;2.42;;;1.63;;
12591;SDS011;6361;52.120;5.108;2023-06-04T01:54:14;3.03;;;1.75;;
12591;SDS011;6361;52.120;5.108;2023-06-04T01:56:41;2.38;;;1.83;;
12591;SDS011;6361;52.120;5.108;2023-06-04T01:59:06;3.00;;;1.85;;
12591;SDS011;6361;52.120;5.108;2023-06-04T02:01:32;3.83;;;2.03;;
12591;SDS011;6361;52.120;5.108;2023-06-04T02:03:58;4.25;;;2.00;;
12591;SDS011;6361;52.120;5.108;2023-06-04T02:06:23;3.90;;;2.05;;
12591;SDS011;6361;52.120;5.108;2023-06-04T02:08:50;2.63;;;1.85;;
12591;SDS011;6361;52.120;5.108;2023-06-04T02:11:15;2.83;;;1.75;;
12591;SDS011;6361;52.120;5.108;2023-06-04T02:13:41;3.75;;;1.70;;
12591;SDS011;6361;52.120;5.108;2023-06-04T02:16:06;2.92;;;1.65;;
12591;SDS011;6361;52.120;5.108;2023-06-04T02:18:32;2.80;;;1.77;;
12591;SDS011;6361;52.120;5.108;2023-06-04T02:20:58;2.83;;;1.85;;
12591;SDS011;6361;52.120;5.108;2023-06-04T02:23:24;3.42;;;1.70;;
12591;SDS011;6361;52.120;5.108;2023-06-04T02:25:49;4.07;;;1.75;;
12591;SDS011;6361;52.120;5.108;2023-06-04T02:28:15;2.90;;;1.60;;
12591;SDS011;6361;52.120;5.108;2023-06-04T02:30:41;2.60;;;1.85;;
12591;SDS011;6361;52.120;5.108;2023-06-04T02:33:06;4.20;;;1.88;;
12591;SDS011;6361;52.120;5.108;2023-06-04T02:35:34;2.78;;;1.95;;
12591;SDS011;6361;52.120;5.108;2023-06-04T02:38:02;2.20;;;1.52;;
12591;SDS011;6361;52.120;5.108;2023-06-04T02:40:27;3.15;;;1.75;;
12591;SDS011;6361;52.120;5.108;2023-06-04T02:42:53;5.60;;;1.50;;
12591;SDS011;6361;52.120;5.108;2023-06-04T02:45:19;2.90;;;1.90;;
12591;SDS011;6361;52.120;5.108;2023-06-04T02:47:44;4.70;;;1.75;;
12591;SDS011;6361;52.120;5.108;2023-06-04T02:50:10;2.83;;;1.73;;
12591;SDS011;6361;52.120;5.108;2023-06-04T02:52:36;3.60;;;1.63;;
12591;SDS011;6361;52.120;5.108;2023-06-04T02:55:05;5.03;;;1.70;;
12591;SDS011;6361;52.120;5.108;2023-06-04T02:57:31;4.20;;;1.80;;
12591;SDS011;6361;52.120;5.108;2023-06-04T02:59:57;3.30;;;1.70;;
12591;SDS011;6361;52.120;5.108;2023-06-04T03:02:22;3.03;;;1.77;;
12591;SDS011;6361;52.120;5.108;2023-06-04T03:04:48;3.80;;;1.90;;
12591;SDS011;6361;52.120;5.108;2023-06-04T03:07:16;2.30;;;1.67;;
12591;SDS011;6361;52.120;5.108;2023-06-04T03:09:45;3.08;;;1.50;;
12591;SDS011;6361;52.120;5.108;2023-06-04T03:12:12;2.65;;;1.90;;
12591;SDS011;6361;52.120;5.108;2023-06-04T03:14:37;3.53;;;1.80;;
12591;SDS011;6361;52.120;5.108;2023-06-04T03:17:02;3.90;;;1.80;;
12591;SDS011;6361;52.120;5.108;2023-06-04T03:19:39;4.63;;;2.05;;
12591;SDS011;6361;52.120;5.108;2023-06-04T03:22:06;2.88;;;1.73;;
12591;SDS011;6361;52.120;5.108;2023-06-04T03:24:33;5.55;;;1.95;;
12591;SDS011;6361;52.120;5.108;2023-06-04T03:27:00;2.58;;;1.83;;
12591;SDS011;6361;52.120;5.108;2023-06-04T03:29:25;6.40;;;2.00;;
12591;SDS011;6361;52.120;5.108;2023-06-04T03:31:51;5.80;;;2.30;;
12591;SDS011;6361;52.120;5.108;2023-06-04T03:34:16;4.80;;;2.03;;
12591;SDS011;6361;52.120;5.108;2023-06-04T03:36:41;4.65;;;1.63;;
12591;SDS011;6361;52.120;5.108;2023-06-04T03:39:07;2.90;;;1.80;;
12591;SDS011;6361;52.120;5.108;2023-06-04T03:41:35;3.50;;;1.85;;
12591;SDS011;6361;52.120;5.108;2023-06-04T03:44:00;3.70;;;1.90;;
12591;SDS011;6361;52.120;5.108;2023-06-04T03:46:25;3.35;;;1.80;;
12591;SDS011;6361;52.120;5.108;2023-06-04T03:48:53;4.18;;;1.67;;
12591;SDS011;6361;52.120;5.108;2023-06-04T03:51:19;3.92;;;1.83;;
12591;SDS011;6361;52.120;5.108;2023-06-04T03:53:44;5.55;;;2.00;;
12591;SDS011;6361;52.120;5.108;2023-06-04T03:56:09;3.67;;;1.75;;
12591;SDS011;6361;52.120;5.108;2023-06-04T03:58:35;3.25;;;1.83;;
12591;SDS011;6361;52.120;5.108;2023-06-04T04:01:01;2.67;;;1.75;;
12591;SDS011;6361;52.120;5.108;2023-06-04T04:03:26;6.45;;;2.00;;
12591;SDS011;6361;52.120;5.108;2023-06-04T04:05:56;3.10;;;1.70;;
12591;SDS011;6361;52.120;5.108;2023-06-04T04:08:22;3.17;;;1.75;;
12591;SDS011;6361;52.120;5.108;2023-06-04T04:10:48;5.00;;;1.85;;
12591;SDS011;6361;52.120;5.108;2023-06-04T04:13:13;4.60;;;2.40;;
12591;SDS011;6361;52.120;5.108;2023-06-04T04:15:39;3.40;;;1.83;;
12591;SDS011;6361;52.120;5.108;2023-06-04T04:18:04;4.38;;;2.08;;
12591;SDS011;6361;52.120;5.108;2023-06-04T04:20:29;3.60;;;1.73;;
12591;SDS011;6361;52.120;5.108;2023-06-04T04:22:55;2.55;;;1.75;;
12591;SDS011;6361;52.120;5.108;2023-06-04T04:25:21;4.18;;;1.83;;
12591;SDS011;6361;52.120;5.108;2023-06-04T04:27:46;3.58;;;2.15;;
12591;SDS011;6361;52.120;5.108;2023-06-04T04:30:13;4.68;;;2.42;;
12591;SDS011;6361;52.120;5.108;2023-06-04T04:32:40;5.10;;;2.10;;
12591;SDS011;6361;52.120;5.108;2023-06-04T04:35:13;4.00;;;1.70;;
12591;SDS011;6361;52.120;5.108;2023-06-04T04:37:39;3.22;;;1.90;;
12591;SDS011;6361;52.120;5.108;2023-06-04T04:40:06;5.15;;;2.17;;
12591;SDS011;6361;52.120;5.108;2023-06-04T04:42:36;5.57;;;1.83;;
12591;SDS011;6361;52.120;5.108;2023-06-04T04:45:02;4.95;;;2.10;;
12591;SDS011;6361;52.120;5.108;2023-06-04T04:47:27;3.33;;;2.00;;
12591;SDS011;6361;52.120;5.108;2023-06-04T04:49:52;5.63;;;2.10;;
12591;SDS011;6361;52.120;5.108;2023-06-04T04:52:18;4.53;;;1.90;;
12591;SDS011;6361;52.120;5.108;2023-06-04T04:54:43;5.28;;;2.30;;
12591;SDS011;6361;52.120;5.108;2023-06-04T04:57:09;6.85;;;2.35;;
12591;SDS011;6361;52.120;5.108;2023-06-04T04:59:34;2.75;;;1.80;;
12591;SDS011;6361;52.120;5.108;2023-06-04T05:01:59;4.05;;;2.40;;
12591;SDS011;6361;52.120;5.108;2023-06-04T05:04:25;4.43;;;2.63;;
12591;SDS011;6361;52.120;5.108;2023-06-04T05:06:50;3.85;;;2.65;;
12591;SDS011;6361;52.120;5.108;2023-06-04T05:09:15;4.65;;;2.35;;
12591;SDS011;6361;52.120;5.108;2023-06-04T05:11:41;4.78;;;2.10;;
12591;SDS011;6361;52.120;5.108;2023-06-04T05:14:06;5.93;;;2.55;;
12591;SDS011;6361;52.120;5.108;2023-06-04T05:16:32;4.00;;;2.42;;
12591;SDS011;6361;52.120;5.108;2023-06-04T05:19:00;4.85;;;2.63;;
12591;SDS011;6361;52.120;5.108;2023-06-04T05:21:26;4.75;;;2.70;;
12591;SDS011;6361;52.120;5.108;2023-06-04T05:23:53;6.88;;;2.55;;
12591;SDS011;6361;52.120;5.108;2023-06-04T05:26:19;6.22;;;2.90;;
12591;SDS011;6361;52.120;5.108;2023-06-04T05:28:48;5.20;;;2.55;;
12591;SDS011;6361;52.120;5.108;2023-06-04T05:31:13;7.55;;;2.92;;
12591;SDS011;6361;52.120;5.108;2023-06-04T05:33:40;6.93;;;2.75;;
12591;SDS011;6361;52.120;5.108;2023-06-04T05:36:06;5.20;;;2.53;;
12591;SDS011;6361;52.120;5.108;2023-06-04T05:38:32;5.22;;;2.40;;
12591;SDS011;6361;52.120;5.108;2023-06-04T05:40:57;6.55;;;2.92;;
12591;SDS011;6361;52.120;5.108;2023-06-04T05:43:23;5.30;;;2.40;;
12591;SDS011;6361;52.120;5.108;2023-06-04T05:45:48;5.72;;;2.53;;
12591;SDS011;6361;52.120;5.108;2023-06-04T05:48:15;7.90;;;2.80;;
12591;SDS011;6361;52.120;5.108;2023-06-04T05:50:40;6.95;;;2.53;;
12591;SDS011;6361;52.120;5.108;2023-06-04T05:53:06;8.43;;;2.63;;
12591;SDS011;6361;52.120;5.108;2023-06-04T05:55:32;10.25;;;2.80;;
12591;SDS011;6361;52.120;5.108;2023-06-04T05:57:57;9.60;;;2.95;;
12591;SDS011;6361;52.120;5.108;2023-06-04T06:00:23;4.63;;;2.53;;
12591;SDS011;6361;52.120;5.108;2023-06-04T06:02:49;5.57;;;2.50;;
12591;SDS011;6361;52.120;5.108;2023-06-04T06:05:15;5.90;;;2.80;;
12591;SDS011;6361;52.120;5.108;2023-06-04T06:07:42;5.53;;;2.53;;
12591;SDS011;6361;52.120;5.108;2023-06-04T06:10:07;6.40;;;2.63;;
12591;SDS011;6361;52.120;5.108;2023-06-04T06:12:33;7.45;;;2.70;;
12591;SDS011;6361;52.120;5.108;2023-06-04T06:14:58;8.88;;;3.20;;
12591;SDS011;6361;52.120;5.108;2023-06-04T06:17:24;6.07;;;2.50;;
12591;SDS011;6361;52.120;5.108;2023-06-04T06:19:51;10.75;;;2.85;;
12591;SDS011;6361;52.120;5.108;2023-06-04T06:22:17;5.95;;;2.60;;
12591;SDS011;6361;52.120;5.108;2023-06-04T06:24:42;6.45;;;2.47;;
12591;SDS011;6361;52.120;5.108;2023-06-04T06:27:07;5.80;;;2.55;;
12591;SDS011;6361;52.120;5.108;2023-06-04T06:29:33;5.82;;;2.45;;
12591;SDS011;6361;52.120;5.108;2023-06-04T06:31:59;7.32;;;2.45;;
12591;SDS011;6361;52.120;5.108;2023-06-04T06:34:24;6.18;;;2.25;;
12591;SDS011;6361;52.120;5.108;2023-06-04T06:36:49;5.10;;;2.15;;
12591;SDS011;6361;52.120;5.108;2023-06-04T06:39:15;4.53;;;2.20;;
12591;SDS011;6361;52.120;5.108;2023-06-04T06:41:41;6.90;;;2.22;;
12591;SDS011;6361;52.120;5.108;2023-06-04T06:44:09;4.95;;;2.20;;
12591;SDS011;6361;52.120;5.108;2023-06-04T06:46:35;4.32;;;1.90;;
12591;SDS011;6361;52.120;5.108;2023-06-04T06:49:01;3.42;;;2.00;;
12591;SDS011;6361;52.120;5.108;2023-06-04T06:51:26;5.47;;;2.05;;
12591;SDS011;6361;52.120;5.108;2023-06-04T06:53:52;5.80;;;2.08;;
12591;SDS011;6361;52.120;5.108;2023-06-04T06:56:17;5.80;;;1.90;;
12591;SDS011;6361;52.120;5.108;2023-06-04T06:58:43;5.03;;;1.90;;
12591;SDS011;6361;52.120;5.108;2023-06-04T07:01:11;4.97;;;2.30;;
12591;SDS011;6361;52.120;5.108;2023-06-04T07:03:37;8.07;;;2.05;;
12591;SDS011;6361;52.120;5.108;2023-06-04T07:06:04;7.70;;;2.13;;
12591;SDS011;6361;52.120;5.108;2023-06-04T07:08:30;8.05;;;2.00;;
12591;SDS011;6361;52.120;5.108;2023-06-04T07:10:56;6.90;;;2.00;;
12591;SDS011;6361;52.120;5.108;2023-06-04T07:13:22;6.25;;;1.83;;
12591;SDS011;6361;52.120;5.108;2023-06-04T07:15:47;5.28;;;1.80;;
12591;SDS011;6361;52.120;5.108;2023-06-04T07:18:12;8.93;;;2.22;;
12591;SDS011;6361;52.120;5.108;2023-06-04T07:20:38;11.90;;;2.30;;
12591;SDS011;6361;52.120;5.108;2023-06-04T07:23:03;4.00;;;1.80;;
12591;SDS011;6361;52.120;5.108;2023-06-04T07:25:28;7.70;;;2.58;;
12591;SDS011;6361;52.120;5.108;2023-06-04T07:27:54;5.82;;;2.42;;
12591;SDS011;6361;52.120;5.108;2023-06-04T07:30:23;5.72;;;1.85;;
12591;SDS011;6361;52.120;5.108;2023-06-04T07:32:49;8.02;;;1.90;;
12591;SDS011;6361;52.120;5.108;2023-06-04T07:35:14;4.97;;;1.90;;
12591;SDS011;6361;52.120;5.108;2023-06-04T07:37:40;5.45;;;2.33;;
12591;SDS011;6361;52.120;5.108;2023-06-04T07:40:06;5.53;;;1.90;;
12591;SDS011;6361;52.120;5.108;2023-06-04T07:42:32;6.95;;;2.10;;
12591;SDS011;6361;52.120;5.108;2023-06-04T07:44:57;5.47;;;2.17;;
12591;SDS011;6361;52.120;5.108;2023-06-04T07:47:23;5.07;;;2.17;;
12591;SDS011;6361;52.120;5.108;2023-06-04T07:49:49;7.00;;;2.08;;
12591;SDS011;6361;52.120;5.108;2023-06-04T07:52:14;7.72;;;1.98;;
12591;SDS011;6361;52.120;5.108;2023-06-04T07:54:40;5.03;;;1.58;;
12591;SDS011;6361;52.120;5.108;2023-06-04T07:57:06;5.03;;;1.80;;
12591;SDS011;6361;52.120;5.108;2023-06-04T07:59:32;4.80;;;1.90;;
12591;SDS011;6361;52.120;5.108;2023-06-04T08:01:57;5.45;;;2.10;;
12591;SDS011;6361;52.120;5.108;2023-06-04T08:04:22;7.22;;;2.00;;
12591;SDS011;6361;52.120;5.108;2023-06-04T08:06:48;5.40;;;1.80;;
12591;SDS011;6361;52.120;5.108;2023-06-04T08:09:14;8.70;;;2.20;;
12591;SDS011;6361;52.120;5.108;2023-06-04T08:11:41;6.63;;;1.90;;
12591;SDS011;6361;52.120;5.108;2023-06-04T08:14:08;5.80;;;1.95;;
12591;SDS011;6361;52.120;5.108;2023-06-04T08:16:33;4.55;;;1.77;;
12591;SDS011;6361;52.120;5.108;2023-06-04T08:18:58;3.15;;;1.90;;
12591;SDS011;6361;52.120;5.108;2023-06-04T08:21:27;4.40;;;1.80;;
12591;SDS011;6361;52.120;5.108;2023-06-04T08:23:53;5.18;;;1.77;;
12591;SDS011;6361;52.120;5.108;2023-06-04T08:26:19;5.55;;;2.38;;
12591;SDS011;6361;52.120;5.108;2023-06-04T08:28:47;6.00;;;2.05;;
12591;SDS011;6361;52.120;5.108;2023-06-04T08:31:14;5.53;;;2.90;;
12591;SDS011;6361;52.120;5.108;2023-06-04T08:33:39;5.75;;;2.20;;
12591;SDS011;6361;52.120;5.108;2023-06-04T08:36:05;5.45;;;1.80;;
12591;SDS011;6361;52.120;5.108;2023-06-04T08:38:30;3.85;;;1.77;;
12591;SDS011;6361;52.120;5.108;2023-06-04T08:40:56;4.82;;;1.60;;
12591;SDS011;6361;52.120;5.108;2023-06-04T08:43:33;4.60;;;1.70;;
12591;SDS011;6361;52.120;5.108;2023-06-04T08:45:59;6.60;;;1.52;;
12591;SDS011;6361;52.120;5.108;2023-06-04T08:48:31;5.43;;;1.80;;
12591;SDS011;6361;52.120;5.108;2023-06-04T08:50:57;4.63;;;2.30;;
12591;SDS011;6361;52.120;5.108;2023-06-04T08:53:24;4.40;;;1.88;;
12591;SDS011;6361;52.120;5.108;2023-06-04T08:55:50;5.70;;;1.80;;
12591;SDS011;6361;52.120;5.108;2023-06-04T08:58:15;5.35;;;1.95;;
12591;SDS011;6361;52.120;5.108;2023-06-04T09:00:42;3.80;;;1.90;;
12591;SDS011;6361;52.120;5.108;2023-06-04T09:03:07;4.88;;;1.55;;
12591;SDS011;6361;52.120;5.108;2023-06-04T09:05:33;4.32;;;1.60;;
12591;SDS011;6361;52.120;5.108;2023-06-04T09:08:00;4.70;;;1.50;;
12591;SDS011;6361;52.120;5.108;2023-06-04T09:10:26;3.05;;;1.63;;
12591;SDS011;6361;52.120;5.108;2023-06-04T09:12:51;5.18;;;1.60;;
12591;SDS011;6361;52.120;5.108;2023-06-04T09:15:17;3.83;;;1.60;;
12591;SDS011;6361;52.120;5.108;2023-06-04T09:17:42;6.63;;;1.80;;
12591;SDS011;6361;52.120;5.108;2023-06-04T09:20:17;4.20;;;1.70;;
12591;SDS011;6361;52.120;5.108;2023-06-04T09:22:43;4.13;;;1.50;;
12591;SDS011;6361;52.120;5.108;2023-06-04T09:25:18;3.63;;;1.60;;
12591;SDS011;6361;52.120;5.108;2023-06-04T09:27:47;2.28;;;1.60;;
12591;SDS011;6361;52.120;5.108;2023-06-04T09:30:13;3.67;;;1.58;;
12591;SDS011;6361;52.120;5.108;2023-06-04T09:32:38;6.28;;;1.80;;
12591;SDS011;6361;52.120;5.108;2023-06-04T09:35:14;6.28;;;1.50;;
12591;SDS011;6361;52.120;5.108;2023-06-04T09:37:41;4.20;;;1.60;;
12591;SDS011;6361;52.120;5.108;2023-06-04T09:40:09;2.42;;;1.42;;
12591;SDS011;6361;52.120;5.108;2023-06-04T09:42:44;3.92;;;1.55;;
12591;SDS011;6361;52.120;5.108;2023-06-04T09:45:11;4.03;;;1.70;;
12591;SDS011;6361;52.120;5.108;2023-06-04T09:47:40;4.80;;;1.58;;
12591;SDS011;6361;52.120;5.108;2023-06-04T09:50:07;3.55;;;1.60;;
12591;SDS011;6361;52.120;5.108;2023-06-04T09:52:33;5.32;;;1.75;;
12591;SDS011;6361;52.120;5.108;2023-06-04T09:54:59;3.15;;;1.50;;
12591;SDS011;6361;52.120;5.108;2023-06-04T09:57:24;2.63;;;1.83;;
12591;SDS011;6361;52.120;5.108;2023-06-04T09:59:50;3.47;;;1.63;;
12591;SDS011;6361;52.120;5.108;2023-06-04T10:02:21;8.13;;;1.73;;
12591;SDS011;6361;52.120;5.108;2023-06-04T10:04:53;9.10;;;1.60;;
12591;SDS011;6361;52.120;5.108;2023-06-04T10:07:22;4.78;;;1.35;;
12591;SDS011;6361;52.120;5.108;2023-06-04T10:09:47;3.58;;;1.70;;
12591;SDS011;6361;52.120;5.108;2023-06-04T10:12:15;2.97;;;1.50;;
12591;SDS011;6361;52.120;5.108;2023-06-04T10:15:02;1.55;;;1.23;;
12591;SDS011;6361;52.120;5.108;2023-06-04T10:17:31;4.80;;;1.60;;
12591;SDS011;6361;52.120;5.108;2023-06-04T10:19:57;10.10;;;1.70;;
12591;SDS011;6361;52.120;5.108;2023-06-04T10:22:23;5.90;;;1.25;;
12591;SDS011;6361;52.120;5.108;2023-06-04T10:24:49;5.05;;;1.45;;
12591;SDS011;6361;52.120;5.108;2023-06-04T10:27:14;7.72;;;1.70;;
12591;SDS011;6361;52.120;5.108;2023-06-04T10:29:42;3.75;;;1.55;;
12591;SDS011;6361;52.120;5.108;2023-06-04T10:32:07;4.75;;;1.45;;
12591;SDS011;6361;52.120;5.108;2023-06-04T10:34:33;2.78;;;1.45;;
12591;SDS011;6361;52.120;5.108;2023-06-04T10:36:59;5.47;;;1.63;;
12591;SDS011;6361;52.120;5.108;2023-06-04T10:39:25;2.83;;;1.40;;
12591;SDS011;6361;52.120;5.108;2023-06-04T10:44:24;3.05;;;1.50;;
12591;SDS011;6361;52.120;5.108;2023-06-04T10:46:49;4.97;;;1.98;;
12591;SDS011;6361;52.120;5.108;2023-06-04T10:49:25;4.30;;;1.40;;
12591;SDS011;6361;52.120;5.108;2023-06-04T10:51:54;3.63;;;1.40;;
12591;SDS011;6361;52.120;5.108;2023-06-04T10:54:28;3.90;;;1.38;;
12591;SDS011;6361;52.120;5.108;2023-06-04T10:56:54;3.35;;;1.52;;
12591;SDS011;6361;52.120;5.108;2023-06-04T10:59:20;4.38;;;1.60;;
12591;SDS011;6361;52.120;5.108;2023-06-04T11:01:46;4.75;;;1.52;;
12591;SDS011;6361;52.120;5.108;2023-06-04T11:04:18;3.72;;;1.67;;
12591;SDS011;6361;52.120;5.108;2023-06-04T11:06:45;3.57;;;1.60;;
12591;SDS011;6361;52.120;5.108;2023-06-04T11:09:12;5.40;;;1.85;;
12591;SDS011;6361;52.120;5.108;2023-06-04T11:11:39;5.05;;;1.80;;
12591;SDS011;6361;52.120;5.108;2023-06-04T11:14:09;4.05;;;1.60;;
12591;SDS011;6361;52.120;5.108;2023-06-04T11:16:35;4.47;;;1.85;;
12591;SDS011;6361;52.120;5.108;2023-06-04T11:19:00;3.47;;;1.70;;
12591;SDS011;6361;52.120;5.108;2023-06-04T11:21:27;5.88;;;2.05;;
12591;SDS011;6361;52.120;5.108;2023-06-04T11:23:57;3.65;;;1.58;;
12591;SDS011;6361;52.120;5.108;2023-06-04T11:26:30;5.63;;;2.25;;
12591;SDS011;6361;52.120;5.108;2023-06-04T11:29:05;4.07;;;1.50;;
12591;SDS011;6361;52.120;5.108;2023-06-04T11:31:40;3.45;;;1.77;;
12591;SDS011;6361;52.120;5.108;2023-06-04T11:34:09;4.70;;;1.83;;
12591;SDS011;6361;52.120;5.108;2023-06-04T11:36:37;2.63;;;1.30;;
12591;SDS011;6361;52.120;5.108;2023-06-04T11:39:03;3.30;;;1.85;;
12591;SDS011;6361;52.120;5.108;2023-06-04T11:41:32;3.70;;;1.70;;
12591;SDS011;6361;52.120;5.108;2023-06-04T11:44:01;4.40;;;2.00;;
12591;SDS011;6361;52.120;5.108;2023-06-04T11:46:34;3.33;;;1.65;;
12591;SDS011;6361;52.120;5.108;2023-06-04T11:49:01;3.40;;;1.85;;
12591;SDS011;6361;52.120;5.108;2023-06-04T11:51:27;3.47;;;1.40;;
12591;SDS011;6361;52.120;5.108;2023-06-04T11:53:53;3.40;;;1.55;;
12591;SDS011;6361;52.120;5.108;2023-06-04T11:56:18;6.60;;;2.03;;
12591;SDS011;6361;52.120;5.108;2023-06-04T11:58:44;4.60;;;1.95;;
12591;SDS011;6361;52.120;5.108;2023-06-04T12:01:11;4.53;;;1.70;;
12591;SDS011;6361;52.120;5.108;2023-06-04T12:03:39;5.07;;;1.98;;
12591;SDS011;6361;52.120;5.108;2023-06-04T12:06:09;3.78;;;2.10;;
12591;SDS011;6361;52.120;5.108;2023-06-04T12:08:46;4.35;;;2.05;;
12591;SDS011;6361;52.120;5.108;2023-06-04T12:13:56;6.85;;;2.03;;
12591;SDS011;6361;52.120;5.108;2023-06-04T12:16:23;4.20;;;2.03;;
12591;SDS011;6361;52.120;5.108;2023-06-04T12:18:48;5.88;;;2.35;;
12591;SDS011;6361;52.120;5.108;2023-06-04T12:21:20;5.57;;;2.00;;
12591;SDS011;6361;52.120;5.108;2023-06-04T12:23:51;5.97;;;2.38;;
12591;SDS011;6361;52.120;5.108;2023-06-04T12:26:38;5.35;;;2.20;;
12591;SDS011;6361;52.120;5.108;2023-06-04T12:31:42;7.63;;;2.83;;
12591;SDS011;6361;52.120;5.108;2023-06-04T12:34:11;6.75;;;2.38;;
12591;SDS011;6361;52.120;5.108;2023-06-04T12:36:39;7.70;;;2.85;;
12591;SDS011;6361;52.120;5.108;2023-06-04T12:39:05;6.75;;;2.00;;
12591;SDS011;6361;52.120;5.108;2023-06-04T12:41:31;5.18;;;1.98;;
12591;SDS011;6361;52.120;5.108;2023-06-04T12:43:58;7.13;;;1.80;;
12591;SDS011;6361;52.120;5.108;2023-06-04T12:46:25;4.82;;;1.90;;
12591;SDS011;6361;52.120;5.108;2023-06-04T12:48:51;5.95;;;1.90;;
12591;SDS011;6361;52.120;5.108;2023-06-04T12:51:17;6.30;;;1.75;;
12591;SDS011;6361;52.120;5.108;2023-06-04T12:53:42;5.45;;;1.92;;
12591;SDS011;6361;52.120;5.108;2023-06-04T12:56:08;4.72;;;2.17;;
12591;SDS011;6361;52.120;5.108;2023-06-04T12:58:34;7.78;;;2.08;;
12591;SDS011;6361;52.120;5.108;2023-06-04T13:00:59;10.88;;;1.90;;
12591;SDS011;6361;52.120;5.108;2023-06-04T13:03:25;5.50;;;1.80;;
12591;SDS011;6361;52.120;5.108;2023-06-04T13:05:51;4.13;;;1.92;;
12591;SDS011;6361;52.120;5.108;2023-06-04T13:08:22;6.55;;;1.77;;
12591;SDS011;6361;52.120;5.108;2023-06-04T13:10:47;3.35;;;1.73;;
12591;SDS011;6361;52.120;5.108;2023-06-04T13:13:13;4.50;;;2.00;;
12591;SDS011;6361;52.120;5.108;2023-06-04T13:15:41;5.78;;;1.65;;
12591;SDS011;6361;52.120;5.108;2023-06-04T13:18:07;4.30;;;1.77;;
12591;SDS011;6361;52.120;5.108;2023-06-04T13:20:32;3.05;;;1.67;;
12591;SDS011;6361;52.120;5.108;2023-06-04T13:22:57;6.05;;;1.80;;
12591;SDS011;6361;52.120;5.108;2023-06-04T13:25:23;5.30;;;1.95;;
12591;SDS011;6361;52.120;5.108;2023-06-04T13:27:48;5.90;;;1.73;;
12591;SDS011;6361;52.120;5.108;2023-06-04T13:30:14;4.82;;;1.80;;
12591;SDS011;6361;52.120;5.108;2023-06-04T13:32:39;4.93;;;1.60;;
12591;SDS011;6361;52.120;5.108;2023-06-04T13:35:05;5.05;;;1.80;;
12591;SDS011;6361;52.120;5.108;2023-06-04T13:37:31;4.70;;;1.70;;
12591;SDS011;6361;52.120;5.108;2023-06-04T13:39:56;8.02;;;1.90;;
12591;SDS011;6361;52.120;5.108;2023-06-04T13:42:21;7.30;;;1.90;;
12591;SDS011;6361;52.120;5.108;2023-06-04T13:44:47;4.15;;;1.83;;
12591;SDS011;6361;52.120;5.108;2023-06-04T13:47:12;5.95;;;2.00;;
12591;SDS011;6361;52.120;5.108;2023-06-04T13:49:37;3.10;;;1.42;;
12591;SDS011;6361;52.120;5.108;2023-06-04T13:52:03;2.65;;;1.50;;
12591;SDS011;6361;52.120;5.108;2023-06-04T13:54:28;6.50;;;1.90;;
12591;SDS011;6361;52.120;5.108;2023-06-04T13:56:54;3.22;;;1.63;;
12591;SDS011;6361;52.120;5.108;2023-06-04T13:59:20;7.38;;;1.60;;
12591;SDS011;6361;52.120;5.108;2023-06-04T14:01:45;1.70;;;1.45;;
12591;SDS011;6361;52.120;5.108;2023-06-04T14:04:10;5.60;;;1.63;;
12591;SDS011;6361;52.120;5.108;2023-06-04T14:06:36;5.55;;;1.50;;
12591;SDS011;6361;52.120;5.108;2023-06-04T14:09:02;7.32;;;1.60;;
12591;SDS011;6361;52.120;5.108;2023-06-04T14:11:28;3.42;;;1.52;;
12591;SDS011;6361;52.120;5.108;2023-06-04T14:13:54;5.43;;;1.88;;
12591;SDS011;6361;52.120;5.108;2023-06-04T14:16:20;5.05;;;1.75;;
12591;SDS011;6361;52.120;5.108;2023-06-04T14:18:45;7.60;;;1.95;;
12591;SDS011;6361;52.120;5.108;2023-06-04T14:21:11;4.13;;;1.70;;
12591;SDS011;6361;52.120;5.108;2023-06-04T14:23:36;6.70;;;1.60;;
12591;SDS011;6361;52.120;5.108;2023-06-04T14:26:01;5.10;;;1.70;;
12591;SDS011;6361;52.120;5.108;2023-06-04T14:28:27;5.82;;;1.92;;
12591;SDS011;6361;52.120;5.108;2023-06-04T14:30:52;4.35;;;1.60;;
12591;SDS011;6361;52.120;5.108;2023-06-04T14:33:17;5.68;;;2.05;;
12591;SDS011;6361;52.120;5.108;2023-06-04T14:35:43;6.97;;;1.73;;
12591;SDS011;6361;52.120;5.108;2023-06-04T14:38:11;5.00;;;1.60;;
12591;SDS011;6361;52.120;5.108;2023-06-04T14:40:39;4.43;;;1.65;;
12591;SDS011;6361;52.120;5.108;2023-06-04T14:43:04;2.92;;;1.50;;
12591;SDS011;6361;52.120;5.108;2023-06-04T14:45:29;5.35;;;1.80;;
12591;SDS011;6361;52.120;5.108;2023-06-04T14:47:55;3.88;;;1.73;;
12591;SDS011;6361;52.120;5.108;2023-06-04T14:50:20;4.95;;;1.60;;
12591;SDS011;6361;52.120;5.108;2023-06-04T14:52:47;5.07;;;1.70;;
12591;SDS011;6361;52.120;5.108;2023-06-04T14:55:13;3.97;;;1.60;;
12591;SDS011;6361;52.120;5.108;2023-06-04T14:57:38;5.55;;;1.75;;
12591;SDS011;6361;52.120;5.108;2023-06-04T15:00:03;3.33;;;1.90;;
12591;SDS011;6361;52.120;5.108;2023-06-04T15:02:29;6.72;;;1.80;;
12591;SDS011;6361;52.120;5.108;2023-06-04T15:04:55;3.47;;;1.73;;
12591;SDS011;6361;52.120;5.108;2023-06-04T15:07:21;5.60;;;1.70;;